This is the latest recevied weather packets stored in our database for station/object VY2CRA-4. If no packets are shown the sender has not sent any weather packets the latest 10 day(s).
| Time | Temp. | Humidity | Pressure | Rain* | Wind** | Luminosity | Snow |
|---|---|---|---|---|---|---|---|
| 1777949194 | 14.44° C | 40% | 1001.7 hPa | 0 mm | - | - | - |
| 1777947993 | 15° C | 38% | 1001.5 hPa | 0 mm | - | - | - |
| 1777946792 | 15.56° C | 36% | 1000.9 hPa | 0 mm | - | - | - |
| 1777945591 | 16.67° C | 33% | 1000.8 hPa | 0 mm | - | - | - |
| 1777944390 | 18.33° C | 28% | 1000.5 hPa | 0 mm | - | - | - |
| 1777943189 | 19.44° C | 24% | 1000.3 hPa | 0 mm | - | - | - |
| 1777941988 | 22.22° C | 19% | 1000 hPa | 0 mm | - | - | - |
| 1777940787 | 25.56° C | 11% | 999.7 hPa | 0 mm | - | - | - |
| 1777939586 | 25.56° C | 11% | 999.5 hPa | 0 mm | - | - | - |
| 1777938385 | 22.22° C | 21% | 999 hPa | 0 mm | - | - | - |
| 1777937184 | 17.78° C | 31% | 998.8 hPa | 0 mm | - | - | - |
| 1777935984 | 16.67° C | 32% | 998.4 hPa | 0 mm | - | - | - |
| 1777933582 | 17.78° C | 28% | 998.1 hPa | 0 mm | - | - | - |
| 1777932381 | 18.33° C | 27% | 998 hPa | 0 mm | - | - | - |
| 1777931181 | 18.89° C | 27% | 997.8 hPa | 0 mm | - | - | - |
| 1777929979 | 19.44° C | 26% | 997.7 hPa | 0 mm | - | - | - |
| 1777928778 | 20° C | 25% | 997.7 hPa | 0 mm | - | - | - |
| 1777927577 | 20° C | 25% | 997.3 hPa | 0 mm | - | - | - |
| 1777926378 | 19.44° C | 25% | 997 hPa | 0 mm | - | - | - |
| 1777925175 | 18.89° C | 27% | 997.1 hPa | 0 mm | - | - | - |
| 1777923974 | 18.33° C | 28% | 996.7 hPa | 0 mm | - | - | - |
| 1777922775 | 18.33° C | 29% | 996.6 hPa | 0 mm | - | - | - |
| 1777921574 | 17.78° C | 31% | 996.5 hPa | 0 mm | - | - | - |
| 1777920371 | 17.78° C | 32% | 996.4 hPa | 0 mm | - | - | - |
| 1777919172 | 17.22° C | 32% | 996.4 hPa | 0 mm | - | - | - |
* Rain since midnight (hover to see other rain measurements)
** Current wind speed in m/s (hover to see current wind gust speed)